Time,TemperatureF,DewpointF,PressureIn,WindDirection,WindDirectionDegrees,WindSpeedMPH,WindSpeedGustMPH,Humidity,HourlyPrecipIn,Conditions,Clouds,dailyrainin,SoftwareType,DateUTC
2013-04-20 00:01:00,37.3,29.7,30.00,West,270,0.0,1.1,74,0.00,,,0.00,WUHU216HW,2013-04-20 05:01:00,
2013-04-20 00:06:00,37.3,29.7,30.01,West,270,0.0,0.4,74,0.00,,,0.00,WUHU216HW,2013-04-20 05:06:00,
2013-04-20 00:11:00,37.1,29.5,30.00,West,270,0.0,0.4,74,0.00,,,0.00,WUHU216HW,2013-04-20 05:11:00,
2013-04-20 00:16:00,37.1,29.9,30.00,West,270,0.0,0.0,75,0.00,,,0.00,WUHU216HW,2013-04-20 05:16:00,
2013-04-20 00:21:00,36.9,29.3,30.00,West,270,0.0,0.0,74,0.00,,,0.00,WUHU216HW,2013-04-20 05:21:00,
2013-04-20 00:26:00,36.5,29.3,30.00,West,270,0.0,0.0,75,0.00,,,0.00,WUHU216HW,2013-04-20 05:26:00,
2013-04-20 00:31:00,36.5,29.7,30.00,West,270,0.9,0.9,76,0.00,,,0.00,WUHU216HW,2013-04-20 05:31:00,
2013-04-20 00:36:00,36.4,28.8,29.99,West,270,0.0,1.8,74,0.00,,,0.00,WUHU216HW,2013-04-20 05:36:00,
2013-04-20 00:41:00,36.2,29.0,29.99,West,270,0.0,1.8,75,0.00,,,0.00,WUHU216HW,2013-04-20 05:41:00,
2013-04-20 00:46:00,36.0,28.8,29.99,West,270,0.0,0.0,75,0.00,,,0.00,WUHU216HW,2013-04-20 05:46:00,
2013-04-20 00:51:00,36.0,28.8,29.99,West,270,0.0,1.1,75,0.00,,,0.00,WUHU216HW,2013-04-20 05:51:00,
2013-04-20 00:56:00,35.8,28.6,29.99,West,270,0.0,1.1,75,0.00,,,0.00,WUHU216HW,2013-04-20 05:56:00,
2013-04-20 01:01:00,35.8,29.0,29.99,West,270,0.0,1.1,76,0.00,,,0.00,WUHU216HW,2013-04-20 06:01:00,
2013-04-20 01:06:00,35.6,28.8,29.99,West,270,0.0,1.1,76,0.00,,,0.00,WUHU216HW,2013-04-20 06:06:00,
2013-04-20 01:11:00,35.6,28.8,29.99,West,270,0.0,0.0,76,0.00,,,0.00,WUHU216HW,2013-04-20 06:11:00,
2013-04-20 01:16:00,35.3,28.5,29.99,West,270,0.0,0.2,76,0.00,,,0.00,WUHU216HW,2013-04-20 06:16:00,
2013-04-20 01:21:00,35.3,28.5,29.99,West,270,0.0,0.2,76,0.00,,,0.00,WUHU216HW,2013-04-20 06:21:00,
2013-04-20 01:26:00,35.1,28.5,29.99,West,270,0.0,0.0,77,0.00,,,0.00,WUHU216HW,2013-04-20 06:26:00,
2013-04-20 01:31:00,34.9,28.4,29.99,West,270,0.0,0.0,77,0.00,,,0.00,WUHU216HW,2013-04-20 06:31:00,
2013-04-20 01:36:00,34.9,28.4,29.99,West,270,0.0,0.0,77,0.00,,,0.00,WUHU216HW,2013-04-20 06:36:00,
2013-04-20 01:41:00,34.7,28.2,29.99,West,270,0.7,0.7,77,0.00,,,0.00,WUHU216HW,2013-04-20 06:41:00,
2013-04-20 01:46:00,34.6,28.0,29.99,West,270,0.0,0.7,77,0.00,,,0.00,WUHU216HW,2013-04-20 06:46:00,
2013-04-20 01:51:00,34.6,28.4,29.99,West,270,0.0,0.4,78,0.00,,,0.00,WUHU216HW,2013-04-20 06:51:00,
2013-04-20 01:56:00,34.6,28.4,29.99,West,270,0.2,0.4,78,0.00,,,0.00,WUHU216HW,2013-04-20 06:56:00,
2013-04-20 02:01:00,34.6,28.4,29.99,West,270,0.0,0.4,78,0.00,,,0.00,WUHU216HW,2013-04-20 07:01:00,
2013-04-20 02:06:00,34.4,28.2,29.99,West,270,0.4,0.9,78,0.00,,,0.00,WUHU216HW,2013-04-20 07:06:00,
2013-04-20 02:11:00,34.2,28.3,29.99,West,270,1.1,1.1,79,0.00,,,0.00,WUHU216HW,2013-04-20 07:11:00,
2013-04-20 02:16:00,34.2,28.3,29.99,West,270,0.2,1.8,79,0.00,,,0.00,WUHU216HW,2013-04-20 07:16:00,
2013-04-20 02:21:00,34.2,28.6,29.98,West,270,0.4,1.8,80,0.00,,,0.00,WUHU216HW,2013-04-20 07:21:00,
2013-04-20 02:26:00,34.2,28.6,29.98,West,270,0.0,1.8,80,0.00,,,0.00,WUHU216HW,2013-04-20 07:26:00,
2013-04-20 02:31:00,34.2,28.6,29.98,West,270,0.0,0.4,80,0.00,,,0.00,WUHU216HW,2013-04-20 07:31:00,
2013-04-20 02:36:00,34.0,28.4,29.97,West,270,0.9,0.9,80,0.00,,,0.00,WUHU216HW,2013-04-20 07:36:00,
2013-04-20 02:41:00,33.8,28.3,29.97,West,270,0.7,0.9,80,0.00,,,0.00,WUHU216HW,2013-04-20 07:41:00,
2013-04-20 02:46:00,33.8,28.3,29.97,West,270,2.5,2.5,80,0.00,,,0.00,WUHU216HW,2013-04-20 07:46:00,
2013-04-20 02:51:00,33.8,28.5,29.97,West,270,0.0,2.5,81,0.00,,,0.00,WUHU216HW,2013-04-20 07:51:00,
2013-04-20 02:56:00,33.8,28.5,29.97,West,270,0.0,1.8,81,0.00,,,0.00,WUHU216HW,2013-04-20 07:56:00,
2013-04-20 03:01:00,33.8,28.5,29.97,West,270,0.7,0.7,81,0.00,,,0.00,WUHU216HW,2013-04-20 08:01:00,
2013-04-20 03:06:00,33.7,28.4,29.97,West,270,0.0,0.7,81,0.00,,,0.00,WUHU216HW,2013-04-20 08:06:00,
2013-04-20 03:11:00,33.5,28.3,29.96,West,270,0.2,0.4,81,0.00,,,0.00,WUHU216HW,2013-04-20 08:11:00,
2013-04-20 03:16:00,33.1,27.9,29.97,West,270,0.2,0.4,81,0.00,,,0.00,WUHU216HW,2013-04-20 08:16:00,
2013-04-20 03:21:00,33.1,27.9,29.96,West,270,0.0,0.4,81,0.00,,,0.00,WUHU216HW,2013-04-20 08:21:00,
2013-04-20 03:26:00,32.9,27.7,29.97,West,270,1.3,1.3,81,0.00,,,0.00,WUHU216HW,2013-04-20 08:26:00,
2013-04-20 03:31:00,32.9,28.0,29.96,West,270,0.0,1.3,82,0.00,,,0.00,WUHU216HW,2013-04-20 08:31:00,
2013-04-20 03:36:00,32.9,27.7,29.97,West,270,0.4,1.3,81,0.00,,,0.00,WUHU216HW,2013-04-20 08:36:00,
2013-04-20 03:41:00,32.9,27.7,29.97,West,270,1.3,1.3,81,0.00,,,0.00,WUHU216HW,2013-04-20 08:41:00,
2013-04-20 03:46:00,33.1,28.2,29.97,West,270,0.4,1.3,82,0.00,,,0.00,WUHU216HW,2013-04-20 08:46:00,
2013-04-20 03:51:00,32.9,28.0,29.97,West,270,0.0,0.4,82,0.00,,,0.00,WUHU216HW,2013-04-20 08:51:00,
2013-04-20 03:56:00,32.8,27.9,29.96,West,270,0.0,0.0,82,0.00,,,0.00,WUHU216HW,2013-04-20 08:56:00,
2013-04-20 04:01:00,32.8,27.9,29.96,West,270,0.0,0.0,82,0.00,,,0.00,WUHU216HW,2013-04-20 09:01:00,
2013-04-20 04:06:00,32.6,27.7,29.96,West,270,0.0,0.0,82,0.00,,,0.00,WUHU216HW,2013-04-20 09:06:00,
2013-04-20 04:11:00,32.2,27.1,29.96,West,270,0.0,0.0,81,0.00,,,0.00,WUHU216HW,2013-04-20 09:11:00,
2013-04-20 04:16:00,32.0,26.9,29.96,West,270,0.0,0.2,81,0.00,,,0.00,WUHU216HW,2013-04-20 09:16:00,
2013-04-20 04:21:00,31.9,26.7,29.96,West,270,0.4,0.4,81,0.00,,,0.00,WUHU216HW,2013-04-20 09:21:00,
2013-04-20 04:26:00,31.9,27.0,29.96,West,270,0.2,1.3,82,0.00,,,0.00,WUHU216HW,2013-04-20 09:26:00,
2013-04-20 04:31:00,31.9,27.0,29.96,West,270,0.4,1.3,82,0.00,,,0.00,WUHU216HW,2013-04-20 09:31:00,
2013-04-20 04:36:00,31.9,27.4,29.96,West,270,0.4,1.1,83,0.00,,,0.00,WUHU216HW,2013-04-20 09:36:00,
2013-04-20 04:41:00,31.9,27.4,29.97,West,270,0.0,1.3,83,0.00,,,0.00,WUHU216HW,2013-04-20 09:41:00,
2013-04-20 04:46:00,31.9,27.4,29.97,West,270,0.0,1.3,83,0.00,,,0.00,WUHU216HW,2013-04-20 09:46:00,
2013-04-20 04:51:00,31.9,27.4,29.96,West,270,0.0,1.8,83,0.00,,,0.00,WUHU216HW,2013-04-20 09:51:00,
2013-04-20 04:56:00,31.7,27.2,29.96,West,270,0.0,1.8,83,0.00,,,0.00,WUHU216HW,2013-04-20 09:56:00,
2013-04-20 05:01:00,31.5,27.0,29.96,West,270,0.0,0.2,83,0.00,,,0.00,WUHU216HW,2013-04-20 10:01:00,
2013-04-20 05:06:00,31.3,26.8,29.96,West,270,0.0,0.4,83,0.00,,,0.00,WUHU216HW,2013-04-20 10:06:00,
2013-04-20 05:11:00,31.3,26.8,29.97,West,270,0.2,0.7,83,0.00,,,0.00,WUHU216HW,2013-04-20 10:11:00,
2013-04-20 05:16:00,31.3,26.8,29.97,West,270,0.0,0.7,83,0.00,,,0.00,WUHU216HW,2013-04-20 10:16:00,
2013-04-20 05:21:00,31.1,26.7,29.97,West,270,0.2,0.4,83,0.00,,,0.00,WUHU216HW,2013-04-20 10:21:00,
2013-04-20 05:26:00,31.1,26.7,29.96,West,270,0.0,0.4,83,0.00,,,0.00,WUHU216HW,2013-04-20 10:26:00,
2013-04-20 05:31:00,31.1,26.7,29.97,West,270,0.0,0.4,83,0.00,,,0.00,WUHU216HW,2013-04-20 10:31:00,
2013-04-20 05:36:00,31.0,26.5,29.96,West,270,0.0,0.0,83,0.00,,,0.00,WUHU216HW,2013-04-20 10:36:00,
2013-04-20 05:41:00,30.8,26.3,29.96,West,270,0.0,0.0,83,0.00,,,0.00,WUHU216HW,2013-04-20 10:41:00,
2013-04-20 05:46:00,30.6,26.1,29.96,West,270,0.0,0.2,83,0.00,,,0.00,WUHU216HW,2013-04-20 10:46:00,
2013-04-20 05:51:00,30.4,25.9,29.95,West,270,0.0,0.2,83,0.00,,,0.00,WUHU216HW,2013-04-20 10:51:00,
2013-04-20 05:56:00,30.2,25.8,29.96,West,270,0.0,0.2,83,0.00,,,0.00,WUHU216HW,2013-04-20 10:56:00,
2013-04-20 06:01:00,30.2,25.8,29.96,West,270,0.4,0.4,83,0.00,,,0.00,WUHU216HW,2013-04-20 11:01:00,
2013-04-20 06:06:00,30.1,25.6,29.97,West,270,0.0,0.9,83,0.00,,,0.00,WUHU216HW,2013-04-20 11:06:00,
2013-04-20 06:11:00,30.1,25.6,29.97,West,270,0.0,0.9,83,0.00,,,0.00,WUHU216HW,2013-04-20 11:11:00,
2013-04-20 06:16:00,29.9,25.4,29.97,West,270,0.0,0.0,83,0.00,,,0.00,WUHU216HW,2013-04-20 11:16:00,
2013-04-20 06:21:00,30.1,25.6,29.97,West,270,0.0,0.0,83,0.00,,,0.00,WUHU216HW,2013-04-20 11:21:00,
2013-04-20 06:26:00,29.9,25.4,29.97,West,270,0.0,0.0,83,0.00,,,0.00,WUHU216HW,2013-04-20 11:26:00,
2013-04-20 06:31:00,29.9,25.4,29.97,West,270,0.0,0.2,83,0.00,,,0.00,WUHU216HW,2013-04-20 11:31:00,
2013-04-20 06:36:00,29.9,25.7,29.97,West,270,0.0,0.4,84,0.00,,,0.00,WUHU216HW,2013-04-20 11:36:00,
2013-04-20 06:41:00,29.9,25.7,29.97,West,270,0.0,0.4,84,0.00,,,0.00,WUHU216HW,2013-04-20 11:41:00,
2013-04-20 06:46:00,29.9,25.7,29.98,West,270,0.0,0.4,84,0.00,,,0.00,WUHU216HW,2013-04-20 11:46:00,
2013-04-20 06:51:00,29.9,25.9,29.97,West,270,0.0,0.4,85,0.00,,,0.00,WUHU216HW,2013-04-20 11:51:00,
2013-04-20 06:56:00,30.1,26.1,29.97,West,270,0.0,0.0,85,0.00,,,0.00,WUHU216HW,2013-04-20 11:56:00,
2013-04-20 07:01:00,30.1,26.1,29.97,West,270,0.0,0.0,85,0.00,,,0.00,WUHU216HW,2013-04-20 12:01:00,
2013-04-20 07:06:00,30.1,26.1,29.97,West,270,0.0,0.0,85,0.00,,,0.00,WUHU216HW,2013-04-20 12:06:00,
2013-04-20 07:11:00,30.1,26.1,29.98,West,270,0.0,0.0,85,0.00,,,0.00,WUHU216HW,2013-04-20 12:11:00,
2013-04-20 07:16:00,30.2,26.3,29.98,West,270,0.0,0.0,85,0.00,,,0.00,WUHU216HW,2013-04-20 12:16:00,
2013-04-20 07:21:00,30.2,26.3,29.98,West,270,0.0,0.0,85,0.00,,,0.00,WUHU216HW,2013-04-20 12:21:00,
2013-04-20 07:26:00,30.2,26.3,29.98,West,270,0.0,0.0,85,0.00,,,0.00,WUHU216HW,2013-04-20 12:26:00,
2013-04-20 07:31:00,30.6,26.6,29.98,West,270,0.0,0.0,85,0.00,,,0.00,WUHU216HW,2013-04-20 12:31:00,
2013-04-20 07:36:00,31.0,27.0,29.98,West,270,0.0,0.0,85,0.00,,,0.00,WUHU216HW,2013-04-20 12:36:00,
2013-04-20 07:41:00,31.5,27.5,29.98,West,270,0.0,0.0,85,0.00,,,0.00,WUHU216HW,2013-04-20 12:41:00,
2013-04-20 07:46:00,32.2,28.3,29.98,West,270,0.0,0.0,85,0.00,,,0.00,WUHU216HW,2013-04-20 12:46:00,
2013-04-20 07:51:00,33.5,29.3,29.99,West,270,0.0,0.0,85,0.00,,,0.00,WUHU216HW,2013-04-20 12:51:00,
2013-04-20 07:56:00,37.4,34.2,29.99,West,270,0.0,0.0,88,0.00,,,0.00,WUHU216HW,2013-04-20 12:56:00,
2013-04-20 08:01:00,42.8,39.9,29.99,West,270,0.0,0.0,89,0.00,,,0.00,WUHU216HW,2013-04-20 13:01:00,
2013-04-20 08:06:00,48.8,44.1,29.99,West,270,0.0,0.0,84,0.00,,,0.00,WUHU216HW,2013-04-20 13:06:00,
2013-04-20 08:11:00,53.6,47.0,29.99,West,270,0.0,0.0,78,0.00,,,0.00,WUHU216HW,2013-04-20 13:11:00,
2013-04-20 08:16:00,58.0,49.3,29.99,West,270,0.0,0.2,73,0.00,,,0.00,WUHU216HW,2013-04-20 13:16:00,
2013-04-20 08:21:00,60.5,49.2,29.99,West,270,0.9,0.9,66,0.00,,,0.00,WUHU216HW,2013-04-20 13:21:00,
2013-04-20 08:26:00,61.2,44.9,30.00,West,270,0.7,0.9,55,0.00,,,0.00,WUHU216HW,2013-04-20 13:26:00,
2013-04-20 08:31:00,61.2,44.4,29.99,South,180,1.1,1.3,54,0.00,,,0.00,WUHU216HW,2013-04-20 13:31:00,
2013-04-20 08:36:00,62.5,41.9,29.99,SE,135,1.6,2.5,47,0.00,,,0.00,WUHU216HW,2013-04-20 13:36:00,
2013-04-20 08:41:00,63.7,43.0,30.00,SE,135,1.6,2.5,47,0.00,,,0.00,WUHU216HW,2013-04-20 13:41:00,
2013-04-20 08:46:00,64.8,41.7,30.00,SE,135,3.4,3.4,43,0.00,,,0.00,WUHU216HW,2013-04-20 13:46:00,
2013-04-20 08:51:00,63.4,38.6,30.00,SSE,158,2.7,5.4,40,0.00,,,0.00,WUHU216HW,2013-04-20 13:51:00,
2013-04-20 08:56:00,63.9,39.2,30.00,SE,135,2.7,5.6,40,0.00,,,0.00,WUHU216HW,2013-04-20 13:56:00,
2013-04-20 09:01:00,64.3,38.7,30.00,SSE,158,4.0,6.3,39,0.00,,,0.00,WUHU216HW,2013-04-20 14:01:00,
2013-04-20 09:06:00,64.1,36.4,30.00,SE,135,4.0,6.3,36,0.00,,,0.00,WUHU216HW,2013-04-20 14:06:00,
2013-04-20 09:11:00,65.2,35.9,30.00,SSW,203,4.5,5.8,34,0.00,,,0.00,WUHU216HW,2013-04-20 14:11:00,
2013-04-20 09:16:00,64.4,34.6,30.00,SE,135,4.0,7.8,33,0.00,,,0.00,WUHU216HW,2013-04-20 14:16:00,
2013-04-20 09:21:00,64.4,33.8,30.00,SE,135,9.8,9.8,32,0.00,,,0.00,WUHU216HW,2013-04-20 14:21:00,
2013-04-20 09:26:00,64.6,34.0,30.00,ESE,113,4.0,9.8,32,0.00,,,0.00,WUHU216HW,2013-04-20 14:26:00,
2013-04-20 09:31:00,65.0,33.6,30.00,South,180,8.5,8.5,31,0.00,,,0.00,WUHU216HW,2013-04-20 14:31:00,
2013-04-20 09:36:00,65.2,33.8,30.00,South,180,7.6,9.8,31,0.00,,,0.00,WUHU216HW,2013-04-20 14:36:00,
2013-04-20 09:41:00,65.5,34.1,30.01,SSW,203,3.4,9.8,31,0.00,,,0.00,WUHU216HW,2013-04-20 14:41:00,
2013-04-20 09:46:00,66.1,35.3,30.00,SSE,158,5.4,9.2,32,0.00,,,0.00,WUHU216HW,2013-04-20 14:46:00,
2013-04-20 09:51:00,67.0,36.1,30.01,SSW,203,3.1,6.0,32,0.00,,,0.00,WUHU216HW,2013-04-20 14:51:00,
2013-04-20 09:56:00,68.8,36.1,30.00,SSE,158,4.0,5.4,30,0.00,,,0.00,WUHU216HW,2013-04-20 14:56:00,
2013-04-20 10:01:00,68.8,35.1,30.00,South,180,2.5,5.4,29,0.00,,,0.00,WUHU216HW,2013-04-20 15:01:00,
2013-04-20 10:06:00,67.9,36.1,30.00,SE,135,4.7,5.6,31,0.00,,,0.00,WUHU216HW,2013-04-20 15:06:00,
2013-04-20 10:11:00,68.9,35.3,30.01,ESE,113,4.7,6.5,29,0.00,,,0.00,WUHU216HW,2013-04-20 15:11:00,
2013-04-20 10:16:00,69.1,34.5,30.01,SSE,158,4.0,9.8,28,0.00,,,0.00,WUHU216HW,2013-04-20 15:16:00,
2013-04-20 10:21:00,68.9,33.3,30.01,South,180,4.0,9.8,27,0.00,,,0.00,WUHU216HW,2013-04-20 15:21:00,
2013-04-20 10:26:00,68.8,35.1,30.00,South,180,6.7,8.7,29,0.00,,,0.00,WUHU216HW,2013-04-20 15:26:00,
2013-04-20 10:31:00,69.3,34.6,30.00,SSW,203,6.9,6.9,28,0.00,,,0.00,WUHU216HW,2013-04-20 15:31:00,
2013-04-20 10:36:00,69.3,34.6,30.00,South,180,3.8,6.9,28,0.00,,,0.00,WUHU216HW,2013-04-20 15:36:00,
2013-04-20 10:41:00,70.4,34.6,30.00,SSW,203,2.5,6.9,27,0.00,,,0.00,WUHU216HW,2013-04-20 15:41:00,
2013-04-20 10:46:00,71.6,34.6,30.00,South,180,5.4,6.9,26,0.00,,,0.00,WUHU216HW,2013-04-20 15:46:00,
2013-04-20 10:51:00,72.5,34.4,30.00,SSE,158,6.3,6.9,25,0.00,,,0.00,WUHU216HW,2013-04-20 15:51:00,
2013-04-20 10:56:00,72.4,35.2,30.00,SSE,158,3.4,6.9,26,0.00,,,0.00,WUHU216HW,2013-04-20 15:56:00,
2013-04-20 11:01:00,72.0,33.8,30.00,SSW,203,6.9,6.9,25,0.00,,,0.00,WUHU216HW,2013-04-20 16:01:00,
2013-04-20 11:06:00,70.9,32.9,30.00,SSE,158,2.9,6.9,25,0.00,,,0.00,WUHU216HW,2013-04-20 16:06:00,
2013-04-20 11:11:00,71.3,33.3,29.99,SSE,158,5.8,6.9,25,0.00,,,0.00,WUHU216HW,2013-04-20 16:11:00,
2013-04-20 11:16:00,71.8,33.8,29.99,SW,225,5.8,6.7,25,0.00,,,0.00,WUHU216HW,2013-04-20 16:16:00,
2013-04-20 11:21:00,71.8,32.7,29.99,South,180,4.0,9.4,24,0.00,,,0.00,WUHU216HW,2013-04-20 16:21:00,
2013-04-20 11:26:00,72.7,34.5,29.99,South,180,4.7,9.4,25,0.00,,,0.00,WUHU216HW,2013-04-20 16:26:00,
2013-04-20 11:31:00,71.6,32.6,29.98,SSE,158,1.8,8.3,24,0.00,,,0.00,WUHU216HW,2013-04-20 16:31:00,
2013-04-20 11:36:00,72.4,33.1,29.98,ESE,113,6.3,8.5,24,0.00,,,0.00,WUHU216HW,2013-04-20 16:36:00,
2013-04-20 11:41:00,72.4,34.2,29.98,West,270,1.1,10.1,25,0.00,,,0.00,WUHU216HW,2013-04-20 16:41:00,
2013-04-20 11:46:00,72.7,32.5,29.97,SSE,158,9.2,10.1,23,0.00,,,0.00,WUHU216HW,2013-04-20 16:46:00,
2013-04-20 11:51:00,71.8,33.8,29.98,South,180,2.7,9.2,25,0.00,,,0.00,WUHU216HW,2013-04-20 16:51:00,
2013-04-20 11:56:00,72.5,35.4,29.98,SSE,158,7.6,8.3,26,0.00,,,0.00,WUHU216HW,2013-04-20 16:56:00,
2013-04-20 12:01:00,72.9,32.6,29.98,ESE,113,5.1,8.3,23,0.00,,,0.00,WUHU216HW,2013-04-20 17:01:00,
2013-04-20 12:06:00,72.9,34.7,29.98,SSE,158,5.4,6.9,25,0.00,,,0.00,WUHU216HW,2013-04-20 17:06:00,
2013-04-20 12:11:00,72.4,33.1,29.98,SSE,158,3.4,7.2,24,0.00,,,0.00,WUHU216HW,2013-04-20 17:11:00,
2013-04-20 12:16:00,72.7,33.5,29.97,South,180,3.1,7.2,24,0.00,,,0.00,WUHU216HW,2013-04-20 17:16:00,
2013-04-20 12:21:00,73.4,34.1,29.97,SSE,158,4.0,5.8,24,0.00,,,0.00,WUHU216HW,2013-04-20 17:21:00,
2013-04-20 12:26:00,74.7,35.2,29.97,SW,225,5.4,8.3,24,0.00,,,0.00,WUHU216HW,2013-04-20 17:26:00,
2013-04-20 12:31:00,73.3,33.0,29.96,SSE,158,7.2,10.1,23,0.00,,,0.00,WUHU216HW,2013-04-20 17:31:00,
2013-04-20 12:36:00,73.1,32.8,29.96,SSE,158,5.4,10.1,23,0.00,,,0.00,WUHU216HW,2013-04-20 17:36:00,
2013-04-20 12:41:00,72.7,33.5,29.96,South,180,2.5,7.6,24,0.00,,,0.00,WUHU216HW,2013-04-20 17:41:00,
2013-04-20 12:46:00,72.9,31.6,29.96,SE,135,7.4,8.1,22,0.00,,,0.00,WUHU216HW,2013-04-20 17:46:00,
2013-04-20 12:51:00,72.4,33.1,29.95,SSW,203,3.4,8.1,24,0.00,,,0.00,WUHU216HW,2013-04-20 17:51:00,
2013-04-20 12:56:00,73.1,32.8,29.95,SSW,203,7.4,7.4,23,0.00,,,0.00,WUHU216HW,2013-04-20 17:56:00,
2013-04-20 13:01:00,72.9,33.7,29.94,SSW,203,4.5,9.4,24,0.00,,,0.00,WUHU216HW,2013-04-20 18:01:00,
2013-04-20 13:06:00,72.7,32.5,29.94,SW,225,7.4,9.4,23,0.00,,,0.00,WUHU216HW,2013-04-20 18:06:00,
2013-04-20 13:11:00,71.5,30.3,29.94,WNW,293,4.5,7.4,22,0.00,,,0.00,WUHU216HW,2013-04-20 18:11:00,
2013-04-20 13:16:00,71.6,31.5,29.94,SW,225,6.3,8.7,23,0.00,,,0.00,WUHU216HW,2013-04-20 18:16:00,
2013-04-20 13:21:00,71.8,30.7,29.93,SE,135,5.8,11.4,22,0.00,,,0.00,WUHU216HW,2013-04-20 18:21:00,
2013-04-20 13:26:00,71.6,30.5,29.93,South,180,5.4,11.4,22,0.00,,,0.00,WUHU216HW,2013-04-20 18:26:00,
2013-04-20 13:31:00,71.5,30.3,29.93,South,180,7.2,9.2,22,0.00,,,0.00,WUHU216HW,2013-04-20 18:31:00,
2013-04-20 13:36:00,72.0,31.9,29.93,SSE,158,3.6,11.0,23,0.00,,,0.00,WUHU216HW,2013-04-20 18:36:00,
2013-04-20 13:41:00,73.1,31.8,29.92,SSW,203,2.2,11.0,22,0.00,,,0.00,WUHU216HW,2013-04-20 18:41:00,
2013-04-20 13:46:00,74.3,31.8,29.92,SSE,158,6.0,8.3,21,0.00,,,0.00,WUHU216HW,2013-04-20 18:46:00,
2013-04-20 13:51:00,73.6,31.2,29.91,SSW,203,5.1,8.3,21,0.00,,,0.00,WUHU216HW,2013-04-20 18:51:00,
2013-04-20 13:56:00,72.9,30.6,29.92,South,180,3.4,8.3,21,0.00,,,0.00,WUHU216HW,2013-04-20 18:56:00,
2013-04-20 14:01:00,72.5,30.2,29.91,SSW,203,4.0,8.3,21,0.00,,,0.00,WUHU216HW,2013-04-20 19:01:00,
2013-04-20 14:06:00,72.4,31.2,29.91,SSE,158,6.5,6.9,22,0.00,,,0.00,WUHU216HW,2013-04-20 19:06:00,
2013-04-20 14:11:00,71.8,30.7,29.91,SW,225,8.7,9.4,22,0.00,,,0.00,WUHU216HW,2013-04-20 19:11:00,
2013-04-20 14:16:00,72.5,32.3,29.90,SE,135,7.4,9.4,23,0.00,,,0.00,WUHU216HW,2013-04-20 19:16:00,
2013-04-20 14:21:00,72.7,31.4,29.90,SE,135,2.7,8.9,22,0.00,,,0.00,WUHU216HW,2013-04-20 19:21:00,
2013-04-20 14:26:00,73.3,33.0,29.90,SSE,158,4.3,6.3,23,0.00,,,0.00,WUHU216HW,2013-04-20 19:26:00,
2013-04-20 14:31:00,72.5,31.3,29.90,SE,135,4.0,12.1,22,0.00,,,0.00,WUHU216HW,2013-04-20 19:31:00,
2013-04-20 14:36:00,72.7,32.5,29.89,SW,225,4.3,12.1,23,0.00,,,0.00,WUHU216HW,2013-04-20 19:36:00,
2013-04-20 14:41:00,71.8,31.7,29.89,SE,135,6.3,10.7,23,0.00,,,0.00,WUHU216HW,2013-04-20 19:41:00,
2013-04-20 14:46:00,71.6,32.6,29.89,South,180,3.4,10.7,24,0.00,,,0.00,WUHU216HW,2013-04-20 19:46:00,
2013-04-20 14:51:00,72.4,32.1,29.89,SSW,203,4.9,6.9,23,0.00,,,0.00,WUHU216HW,2013-04-20 19:51:00,
2013-04-20 14:56:00,71.3,31.2,29.88,SSW,203,3.6,13.9,23,0.00,,,0.00,WUHU216HW,2013-04-20 19:56:00,
2013-04-20 15:01:00,70.7,31.8,29.88,SSW,203,3.6,13.9,24,0.00,,,0.00,WUHU216HW,2013-04-20 20:01:00,
2013-04-20 15:06:00,69.7,30.9,29.87,SSW,203,4.0,8.5,24,0.00,,,0.00,WUHU216HW,2013-04-20 20:06:00,
2013-04-20 15:11:00,68.8,31.2,29.87,SSE,158,3.4,9.8,25,0.00,,,0.00,WUHU216HW,2013-04-20 20:11:00,
2013-04-20 15:16:00,69.3,31.6,29.87,SSW,203,5.4,9.8,25,0.00,,,0.00,WUHU216HW,2013-04-20 20:16:00,
2013-04-20 15:21:00,69.1,30.4,29.87,South,180,8.1,9.6,24,0.00,,,0.00,WUHU216HW,2013-04-20 20:21:00,
2013-04-20 15:26:00,69.1,31.4,29.87,SSE,158,3.1,9.6,25,0.00,,,0.00,WUHU216HW,2013-04-20 20:26:00,
2013-04-20 15:31:00,69.3,31.6,29.87,SSW,203,7.2,7.2,25,0.00,,,0.00,WUHU216HW,2013-04-20 20:31:00,
2013-04-20 15:36:00,68.9,31.3,29.86,WSW,248,6.9,8.9,25,0.00,,,0.00,WUHU216HW,2013-04-20 20:36:00,
2013-04-20 15:41:00,68.6,30.0,29.86,South,180,9.2,9.2,24,0.00,,,0.00,WUHU216HW,2013-04-20 20:41:00,
2013-04-20 15:46:00,68.4,30.8,29.86,SSE,158,5.8,9.2,25,0.00,,,0.00,WUHU216HW,2013-04-20 20:46:00,
2013-04-20 15:51:00,68.4,30.8,29.85,SSE,158,6.0,10.7,25,0.00,,,0.00,WUHU216HW,2013-04-20 20:51:00,
2013-04-20 15:56:00,68.8,31.2,29.85,South,180,6.9,10.7,25,0.00,,,0.00,WUHU216HW,2013-04-20 20:56:00,
2013-04-20 16:01:00,68.8,31.2,29.85,South,180,6.5,9.4,25,0.00,,,0.00,WUHU216HW,2013-04-20 21:01:00,
2013-04-20 16:06:00,68.8,34.1,29.84,SSW,203,3.4,9.4,28,0.00,,,0.00,WUHU216HW,2013-04-20 21:06:00,
2013-04-20 16:11:00,68.8,30.2,29.84,South,180,10.5,11.6,24,0.00,,,0.00,WUHU216HW,2013-04-20 21:11:00,
2013-04-20 16:16:00,68.4,30.8,29.84,South,180,10.5,11.6,25,0.00,,,0.00,WUHU216HW,2013-04-20 21:16:00,
2013-04-20 16:21:00,68.4,30.8,29.84,SE,135,4.0,10.5,25,0.00,,,0.00,WUHU216HW,2013-04-20 21:21:00,
2013-04-20 16:26:00,68.4,31.8,29.83,SSW,203,7.2,9.2,26,0.00,,,0.00,WUHU216HW,2013-04-20 21:26:00,
2013-04-20 16:31:00,68.8,31.2,29.83,South,180,4.5,9.2,25,0.00,,,0.00,WUHU216HW,2013-04-20 21:31:00,
2013-04-20 16:36:00,68.8,31.2,29.82,SE,135,4.3,8.5,25,0.00,,,0.00,WUHU216HW,2013-04-20 21:36:00,
2013-04-20 16:41:00,68.6,31.0,29.82,South,180,10.7,10.7,25,0.00,,,0.00,WUHU216HW,2013-04-20 21:41:00,
2013-04-20 16:46:00,68.4,31.8,29.83,SE,135,4.7,10.7,26,0.00,,,0.00,WUHU216HW,2013-04-20 21:46:00,
2013-04-20 16:51:00,68.6,31.0,29.82,SSW,203,7.4,8.9,25,0.00,,,0.00,WUHU216HW,2013-04-20 21:51:00,
2013-04-20 16:56:00,68.2,30.7,29.82,SSE,158,6.7,13.2,25,0.00,,,0.00,WUHU216HW,2013-04-20 21:56:00,
2013-04-20 17:01:00,68.0,31.5,29.81,South,180,4.0,13.2,26,0.00,,,0.00,WUHU216HW,2013-04-20 22:01:00,
2013-04-20 17:06:00,68.4,30.8,29.81,SSE,158,8.1,11.4,25,0.00,,,0.00,WUHU216HW,2013-04-20 22:06:00,
2013-04-20 17:11:00,68.2,31.7,29.81,SSE,158,6.3,10.5,26,0.00,,,0.00,WUHU216HW,2013-04-20 22:11:00,
2013-04-20 17:16:00,68.4,30.8,29.81,SSE,158,5.8,7.6,25,0.00,,,0.00,WUHU216HW,2013-04-20 22:16:00,
2013-04-20 17:21:00,68.2,29.7,29.81,SE,135,7.2,10.5,24,0.00,,,0.00,WUHU216HW,2013-04-20 22:21:00,
2013-04-20 17:26:00,68.2,29.7,29.80,SSE,158,6.3,10.5,24,0.00,,,0.00,WUHU216HW,2013-04-20 22:26:00,
2013-04-20 17:31:00,68.0,30.5,29.80,SE,135,7.6,7.6,25,0.00,,,0.00,WUHU216HW,2013-04-20 22:31:00,
2013-04-20 17:36:00,68.4,30.8,29.79,ESE,113,8.3,9.2,25,0.00,,,0.00,WUHU216HW,2013-04-20 22:36:00,
2013-04-20 17:41:00,68.4,31.8,29.79,SSE,158,9.2,9.2,26,0.00,,,0.00,WUHU216HW,2013-04-20 22:41:00,
2013-04-20 17:46:00,68.4,30.8,29.79,NE,45,3.4,9.2,25,0.00,,,0.00,WUHU216HW,2013-04-20 22:46:00,
2013-04-20 17:51:00,68.2,30.7,29.79,SSE,158,5.4,8.3,25,0.00,,,0.00,WUHU216HW,2013-04-20 22:51:00,
2013-04-20 17:56:00,68.2,30.7,29.79,South,180,6.3,8.3,25,0.00,,,0.00,WUHU216HW,2013-04-20 22:56:00,
2013-04-20 18:01:00,68.0,30.5,29.79,South,180,10.7,10.7,25,0.00,,,0.00,WUHU216HW,2013-04-20 23:01:00,
2013-04-20 18:06:00,67.9,31.3,29.79,South,180,5.4,10.7,26,0.00,,,0.00,WUHU216HW,2013-04-20 23:06:00,
2013-04-20 18:11:00,67.7,30.3,29.79,SSE,158,8.5,8.5,25,0.00,,,0.00,WUHU216HW,2013-04-20 23:11:00,
2013-04-20 18:16:00,67.5,31.1,29.79,SE,135,7.6,11.0,26,0.00,,,0.00,WUHU216HW,2013-04-20 23:16:00,
2013-04-20 18:21:00,67.3,30.9,29.79,South,180,4.0,11.0,26,0.00,,,0.00,WUHU216HW,2013-04-20 23:21:00,
2013-04-20 18:26:00,67.3,30.9,29.79,SE,135,6.3,7.6,26,0.00,,,0.00,WUHU216HW,2013-04-20 23:26:00,
2013-04-20 18:31:00,67.3,30.9,29.79,South,180,5.4,9.6,26,0.00,,,0.00,WUHU216HW,2013-04-20 23:31:00,
2013-04-20 18:36:00,67.3,32.9,29.80,WSW,248,5.4,9.6,28,0.00,,,0.00,WUHU216HW,2013-04-20 23:36:00,
2013-04-20 18:41:00,67.0,30.6,29.80,SSE,158,6.3,6.9,26,0.00,,,0.00,WUHU216HW,2013-04-20 23:41:00,
2013-04-20 18:46:00,67.0,32.6,29.79,SSE,158,4.7,7.2,28,0.00,,,0.00,WUHU216HW,2013-04-20 23:46:00,
2013-04-20 18:51:00,66.8,30.4,29.79,SSE,158,6.0,9.8,26,0.00,,,0.00,WUHU216HW,2013-04-20 23:51:00,
2013-04-20 18:56:00,66.8,32.5,29.80,SSE,158,6.9,9.8,28,0.00,,,0.00,WUHU216HW,2013-04-20 23:56:00,
2013-04-20 19:01:00,66.6,32.3,29.79,SSE,158,4.7,8.5,28,0.00,,,0.00,WUHU216HW,2013-04-21 00:01:00,
2013-04-20 19:06:00,66.4,32.1,29.80,South,180,6.7,8.5,28,0.00,,,0.00,WUHU216HW,2013-04-21 00:06:00,
2013-04-20 19:11:00,66.2,32.1,29.80,SE,135,3.8,7.2,28,0.00,,,0.00,WUHU216HW,2013-04-21 00:11:00,
2013-04-20 19:16:00,66.1,31.9,29.80,ESE,113,3.4,7.2,28,0.00,,,0.00,WUHU216HW,2013-04-21 00:16:00,
2013-04-20 19:21:00,65.9,31.7,29.80,SSE,158,1.8,6.3,28,0.00,,,0.00,WUHU216HW,2013-04-21 00:21:00,
2013-04-20 19:26:00,65.7,32.5,29.80,SE,135,1.8,5.8,29,0.00,,,0.00,WUHU216HW,2013-04-21 00:26:00,
2013-04-20 19:31:00,65.5,32.4,29.80,South,180,5.6,5.6,29,0.00,,,0.00,WUHU216HW,2013-04-21 00:31:00,
2013-04-20 19:36:00,65.2,32.0,29.80,SE,135,3.1,5.6,29,0.00,,,0.00,WUHU216HW,2013-04-21 00:36:00,
2013-04-20 19:41:00,64.8,31.8,29.80,SSW,203,2.5,3.8,29,0.00,,,0.00,WUHU216HW,2013-04-21 00:41:00,
2013-04-20 19:46:00,64.4,32.4,29.80,SSE,158,1.1,3.8,30,0.00,,,0.00,WUHU216HW,2013-04-21 00:46:00,
2013-04-20 19:51:00,63.9,32.0,29.81,ESE,113,2.2,2.2,30,0.00,,,0.00,WUHU216HW,2013-04-21 00:51:00,
2013-04-20 19:56:00,63.5,31.6,29.81,SE,135,0.0,2.5,30,0.00,,,0.00,WUHU216HW,2013-04-21 00:56:00,
2013-04-20 20:01:00,63.0,31.9,29.81,SE,135,0.0,2.5,31,0.00,,,0.00,WUHU216HW,2013-04-21 01:01:00,
2013-04-20 20:06:00,62.1,31.1,29.81,SE,135,0.0,0.7,31,0.00,,,0.00,WUHU216HW,2013-04-21 01:06:00,
2013-04-20 20:11:00,61.0,30.8,29.82,SE,135,0.0,0.0,32,0.00,,,0.00,WUHU216HW,2013-04-21 01:11:00,
2013-04-20 20:16:00,59.9,30.6,29.82,SE,135,0.0,0.0,33,0.00,,,0.00,WUHU216HW,2013-04-21 01:16:00,
2013-04-20 20:21:00,58.7,30.3,29.82,SE,135,0.0,0.0,34,0.00,,,0.00,WUHU216HW,2013-04-21 01:21:00,
2013-04-20 20:26:00,57.8,30.8,29.82,SE,135,0.0,0.0,36,0.00,,,0.00,WUHU216HW,2013-04-21 01:26:00,
2013-04-20 20:31:00,56.9,30.7,29.82,SE,135,0.0,0.0,37,0.00,,,0.00,WUHU216HW,2013-04-21 01:31:00,
2013-04-20 20:36:00,56.2,30.8,29.83,SE,135,0.0,0.0,38,0.00,,,0.00,WUHU216HW,2013-04-21 01:36:00,
2013-04-20 20:41:00,55.4,31.5,29.83,SE,135,0.0,0.0,40,0.00,,,0.00,WUHU216HW,2013-04-21 01:41:00,
2013-04-20 20:46:00,54.9,31.6,29.83,SE,135,0.0,0.0,41,0.00,,,0.00,WUHU216HW,2013-04-21 01:46:00,
2013-04-20 20:51:00,54.0,31.3,29.83,SE,135,0.0,0.0,42,0.00,,,0.00,WUHU216HW,2013-04-21 01:51:00,
2013-04-20 20:56:00,53.6,32.1,29.84,SE,135,0.0,0.0,44,0.00,,,0.00,WUHU216HW,2013-04-21 01:56:00,
2013-04-20 21:01:00,52.9,32.1,29.84,SE,135,0.0,0.0,45,0.00,,,0.00,WUHU216HW,2013-04-21 02:01:00,
2013-04-20 21:06:00,52.2,31.4,29.84,SE,135,0.0,0.0,45,0.00,,,0.00,WUHU216HW,2013-04-21 02:06:00,
2013-04-20 21:11:00,51.8,31.6,29.84,SE,135,0.0,0.0,46,0.00,,,0.00,WUHU216HW,2013-04-21 02:11:00,
2013-04-20 21:16:00,51.5,31.3,29.84,SE,135,0.0,0.0,46,0.00,,,0.00,WUHU216HW,2013-04-21 02:16:00,
2013-04-20 21:21:00,51.1,31.5,29.84,SE,135,0.7,0.7,47,0.00,,,0.00,WUHU216HW,2013-04-21 02:21:00,
2013-04-20 21:26:00,50.9,32.5,29.84,NNE,23,0.4,1.1,49,0.00,,,0.00,WUHU216HW,2013-04-21 02:26:00,
2013-04-20 21:31:00,50.9,33.0,29.85,NNE,23,0.0,1.8,50,0.00,,,0.00,WUHU216HW,2013-04-21 02:31:00,
2013-04-20 21:36:00,50.6,33.6,29.85,NNE,23,0.0,1.8,52,0.00,,,0.00,WUHU216HW,2013-04-21 02:36:00,
2013-04-20 21:41:00,50.0,33.1,29.85,NNE,23,0.0,0.0,52,0.00,,,0.00,WUHU216HW,2013-04-21 02:41:00,
2013-04-20 21:46:00,49.7,32.8,29.85,NNE,23,0.0,0.0,52,0.00,,,0.00,WUHU216HW,2013-04-21 02:46:00,
2013-04-20 21:51:00,49.3,32.9,29.85,NNE,23,0.0,0.0,53,0.00,,,0.00,WUHU216HW,2013-04-21 02:51:00,
2013-04-20 21:56:00,49.1,33.1,29.85,NNE,23,0.7,0.7,54,0.00,,,0.00,WUHU216HW,2013-04-21 02:56:00,
2013-04-20 22:01:00,49.5,33.9,29.85,NE,45,0.0,0.9,55,0.00,,,0.00,WUHU216HW,2013-04-21 03:01:00,
2013-04-20 22:06:00,50.8,36.0,29.85,ESE,113,1.1,3.6,57,0.00,,,0.00,WUHU216HW,2013-04-21 03:06:00,
2013-04-20 22:11:00,52.4,37.5,29.85,SE,135,1.8,3.6,57,0.00,,,0.00,WUHU216HW,2013-04-21 03:11:00,
2013-04-20 22:16:00,53.6,38.3,29.85,SE,135,1.8,2.5,56,0.00,,,0.00,WUHU216HW,2013-04-21 03:16:00,
2013-04-20 22:21:00,54.4,38.4,29.86,SE,135,4.7,4.7,55,0.00,,,0.00,WUHU216HW,2013-04-21 03:21:00,
2013-04-20 22:26:00,55.3,39.2,29.86,SSE,158,4.0,4.7,55,0.00,,,0.00,WUHU216HW,2013-04-21 03:26:00,
2013-04-20 22:31:00,55.8,39.8,29.86,ESE,113,4.3,7.6,55,0.00,,,0.00,WUHU216HW,2013-04-21 03:31:00,
2013-04-20 22:36:00,56.5,41.0,29.86,South,180,3.4,7.6,56,0.00,,,0.00,WUHU216HW,2013-04-21 03:36:00,
2013-04-20 22:41:00,57.1,41.0,29.86,SE,135,1.8,6.3,55,0.00,,,0.00,WUHU216HW,2013-04-21 03:41:00,
2013-04-20 22:46:00,57.2,41.7,29.87,SSE,158,1.3,4.5,56,0.00,,,0.00,WUHU216HW,2013-04-21 03:46:00,
2013-04-20 22:51:00,57.1,41.5,29.87,SE,135,6.3,6.3,56,0.00,,,0.00,WUHU216HW,2013-04-21 03:51:00,
2013-04-20 22:56:00,57.1,41.5,29.87,ESE,113,2.5,6.3,56,0.00,,,0.00,WUHU216HW,2013-04-21 03:56:00,
2013-04-20 23:01:00,57.1,42.5,29.87,SSW,203,5.8,7.6,58,0.00,,,0.00,WUHU216HW,2013-04-21 04:01:00,
2013-04-20 23:02:00,57.1,42.5,29.87,SSW,203,6.0,7.6,58,0.00,,,0.00,WUHU216HW,2013-04-21 04:02:00,
2013-04-20 23:07:00,57.2,42.7,29.87,ESE,113,8.5,8.5,58,0.00,,,0.00,WUHU216HW,2013-04-21 04:07:00,
2013-04-20 23:12:00,57.2,43.1,29.87,SE,135,3.6,8.5,59,0.00,,,0.00,WUHU216HW,2013-04-21 04:12:00,
2013-04-20 23:17:00,57.2,43.1,29.88,SSE,158,4.5,7.6,59,0.00,,,0.00,WUHU216HW,2013-04-21 04:17:00,
2013-04-20 23:22:00,57.1,43.4,29.88,ESE,113,4.7,7.6,60,0.00,,,0.00,WUHU216HW,2013-04-21 04:22:00,
2013-04-20 23:27:00,57.1,43.4,29.88,South,180,6.7,6.7,60,0.00,,,0.00,WUHU216HW,2013-04-21 04:27:00,
2013-04-20 23:32:00,56.9,43.6,29.88,SSE,158,7.6,7.6,61,0.00,,,0.00,WUHU216HW,2013-04-21 04:32:00,
2013-04-20 23:37:00,56.9,43.6,29.88,SSE,158,6.7,12.1,61,0.00,,,0.00,WUHU216HW,2013-04-21 04:37:00,
2013-04-20 23:42:00,56.9,44.0,29.88,SE,135,6.5,12.1,62,0.00,,,0.00,WUHU216HW,2013-04-21 04:42:00,
2013-04-20 23:47:00,56.7,44.2,29.88,SE,135,4.7,9.6,63,0.00,,,0.00,WUHU216HW,2013-04-21 04:47:00,
2013-04-20 23:52:00,56.3,44.3,29.88,SE,135,9.4,9.6,64,0.00,,,0.00,WUHU216HW,2013-04-21 04:52:00,
2013-04-20 23:57:00,56.3,44.3,29.88,SE,135,2.5,9.8,64,0.00,,,0.00,WUHU216HW,2013-04-21 04:57:00,